createdAt,value
2019-01-31T00:01:39.905Z,5.20
2019-01-31T00:04:28.708Z,6.03
2019-01-31T00:07:40.723Z,6.43
2019-01-31T00:10:33.179Z,6.47
2019-01-31T00:13:43.016Z,6.63
2019-01-31T00:16:35.273Z,6.83
2019-01-31T00:19:35.080Z,7.07
2019-01-31T00:22:47.364Z,5.73
2019-01-31T00:25:39.273Z,4.50
2019-01-31T00:28:42.100Z,4.47
2019-01-31T00:31:36.873Z,3.93
2019-01-31T00:34:49.708Z,3.57
2019-01-31T00:37:40.483Z,2.80
2019-01-31T00:40:19.293Z,2.73
2019-01-31T00:43:18.420Z,2.27
2019-01-31T00:46:18.761Z,2.00
2019-01-31T00:49:16.605Z,2.20
2019-01-31T00:52:12.159Z,2.07
2019-01-31T00:55:34.347Z,2.17
2019-01-31T00:58:33.198Z,2.60
2019-01-31T01:01:37.783Z,2.03
2019-01-31T01:04:43.532Z,2.40
2019-01-31T01:08:02.589Z,2.63
2019-01-31T01:11:11.056Z,2.70
2019-01-31T01:13:51.109Z,2.30
2019-01-31T01:16:39.145Z,3.37
2019-01-31T01:20:01.109Z,2.80
2019-01-31T01:22:44.651Z,2.80
2019-01-31T01:25:57.007Z,3.13
2019-01-31T01:28:58.107Z,2.60
2019-01-31T01:32:11.236Z,2.90
2019-01-31T01:35:22.440Z,3.20
2019-01-31T01:38:50.768Z,2.43
2019-01-31T01:41:54.522Z,2.40
2019-01-31T01:45:04.880Z,3.03
2019-01-31T01:47:39.469Z,3.17
2019-01-31T01:50:21.032Z,3.63
2019-01-31T01:53:26.096Z,3.57
2019-01-31T01:56:37.720Z,4.27
2019-01-31T01:59:46.588Z,3.30
2019-01-31T02:02:54.113Z,3.20
2019-01-31T02:05:50.780Z,3.30
2019-01-31T02:09:02.067Z,4.10
2019-01-31T02:11:58.669Z,4.00
2019-01-31T02:15:16.374Z,3.90
2019-01-31T02:18:26.413Z,4.50
2019-01-31T02:21:25.212Z,5.77
2019-01-31T02:24:08.052Z,6.60
2019-01-31T02:27:04.779Z,6.23
2019-01-31T02:30:02.692Z,6.70
2019-01-31T02:33:07.404Z,7.20
2019-01-31T02:36:29.071Z,7.80
2019-01-31T02:39:47.647Z,8.77
2019-01-31T02:42:45.386Z,8.07
2019-01-31T02:45:37.298Z,9.07
2019-01-31T02:48:21.980Z,8.47
2019-01-31T02:51:22.173Z,8.43
2019-01-31T02:54:31.551Z,8.77
2019-01-31T02:57:32.413Z,7.93
2019-01-31T03:00:29.837Z,8.13
2019-01-31T03:03:30.482Z,7.97
2019-01-31T03:06:29.417Z,8.27
2019-01-31T03:09:27.544Z,8.57
2019-01-31T03:12:09.343Z,9.00
2019-01-31T03:14:43.854Z,8.23
2019-01-31T03:17:56.992Z,9.13
2019-01-31T03:21:10.125Z,8.90
2019-01-31T03:24:11.187Z,9.40
2019-01-31T03:27:07.024Z,9.37
2019-01-31T03:30:24.742Z,11.30
2019-01-31T03:33:15.209Z,11.17
2019-01-31T03:36:34.344Z,11.03
2019-01-31T03:39:41.360Z,10.83
2019-01-31T03:42:54.838Z,10.40
2019-01-31T03:46:03.317Z,11.17
2019-01-31T03:48:55.004Z,9.87
2019-01-31T03:51:48.495Z,9.57
2019-01-31T03:55:04.947Z,10.20
2019-01-31T03:58:06.370Z,10.70
2019-01-31T04:00:48.911Z,10.10
2019-01-31T04:03:32.428Z,10.47
2019-01-31T04:06:14.146Z,9.40
2019-01-31T04:08:43.118Z,11.43
2019-01-31T04:11:12.133Z,9.87
2019-01-31T04:13:41.137Z,10.37
2019-01-31T04:16:10.160Z,10.60
2019-01-31T04:18:39.152Z,10.07
2019-01-31T04:21:09.175Z,10.00
2019-01-31T04:23:38.123Z,10.33
2019-01-31T04:26:09.189Z,10.90
2019-01-31T04:28:38.347Z,11.07
2019-01-31T04:31:07.368Z,10.67
2019-01-31T04:33:36.390Z,10.97
2019-01-31T04:36:05.388Z,10.30
2019-01-31T04:38:34.413Z,10.77
2019-01-31T04:41:03.344Z,10.33
2019-01-31T04:43:32.336Z,11.70
2019-01-31T04:46:01.357Z,11.30
2019-01-31T04:48:31.064Z,10.43
2019-01-31T04:51:00.009Z,10.90
2019-01-31T04:53:28.948Z,10.57
2019-01-31T04:55:57.901Z,10.33
2019-01-31T04:58:26.855Z,11.37
2019-01-31T05:00:55.803Z,10.57
2019-01-31T05:03:24.747Z,9.83
2019-01-31T05:05:53.721Z,10.00
2019-01-31T05:08:22.647Z,10.80
2019-01-31T05:10:51.644Z,10.50
2019-01-31T05:13:20.524Z,9.40
2019-01-31T05:15:49.445Z,9.37
2019-01-31T05:18:18.307Z,9.07
2019-01-31T05:20:47.550Z,9.03
2019-01-31T05:23:16.480Z,8.57
2019-01-31T05:25:45.476Z,8.60
2019-01-31T05:28:14.413Z,8.47
2019-01-31T05:30:43.312Z,8.43
2019-01-31T05:33:12.526Z,7.70
2019-01-31T05:35:41.504Z,7.47
2019-01-31T05:38:10.510Z,7.67
2019-01-31T05:40:39.502Z,8.00
2019-01-31T05:43:08.432Z,8.17
2019-01-31T05:45:37.432Z,7.93
2019-01-31T05:48:06.440Z,8.07
2019-01-31T05:50:35.353Z,8.50
2019-01-31T05:53:04.421Z,8.03
2019-01-31T05:55:33.306Z,8.13
2019-01-31T05:58:02.304Z,8.63
2019-01-31T06:00:35.886Z,6.87
2019-01-31T06:03:05.200Z,8.73
2019-01-31T06:05:34.598Z,8.37
2019-01-31T06:08:03.600Z,7.80
2019-01-31T06:10:33.653Z,7.77
2019-01-31T06:13:02.914Z,7.57
2019-01-31T06:15:31.936Z,7.40
2019-01-31T06:18:01.208Z,7.57
2019-01-31T06:20:30.232Z,8.20
2019-01-31T06:22:59.250Z,8.17
2019-01-31T06:25:28.189Z,8.30
2019-01-31T06:27:57.188Z,7.80
2019-01-31T06:30:26.316Z,6.87
2019-01-31T06:32:55.345Z,7.70
2019-01-31T06:35:24.694Z,7.90
2019-01-31T06:37:53.544Z,6.57
2019-01-31T06:40:22.557Z,6.50
2019-01-31T06:42:52.477Z,7.20
2019-01-31T06:45:22.297Z,6.93
2019-01-31T06:47:51.596Z,6.73
2019-01-31T06:50:20.594Z,6.77
2019-01-31T06:52:49.457Z,7.47
2019-01-31T06:55:19.353Z,7.03
2019-01-31T06:57:48.290Z,8.20
2019-01-31T07:00:21.989Z,7.53
2019-01-31T07:02:51.304Z,8.10
2019-01-31T07:05:20.314Z,8.47
2019-01-31T07:07:49.379Z,8.97
2019-01-31T07:10:23.981Z,9.50
2019-01-31T07:12:53.022Z,9.57
2019-01-31T07:15:21.976Z,9.47
2019-01-31T07:17:51.372Z,10.03
2019-01-31T07:20:20.486Z,9.07
2019-01-31T07:22:49.446Z,9.53
2019-01-31T07:25:21.766Z,9.63
2019-01-31T07:27:53.482Z,9.93
2019-01-31T07:30:26.739Z,11.77
2019-01-31T07:32:56.284Z,10.57
2019-01-31T07:35:25.234Z,11.47
2019-01-31T07:37:54.236Z,11.43
2019-01-31T07:40:23.463Z,11.17
2019-01-31T07:42:52.448Z,12.40
2019-01-31T07:45:23.629Z,12.53
2019-01-31T07:47:54.983Z,11.50
2019-01-31T07:50:24.068Z,11.63
2019-01-31T07:52:53.568Z,12.27
2019-01-31T07:55:22.589Z,11.90
2019-01-31T07:57:52.276Z,12.13
2019-01-31T08:00:21.823Z,12.73
2019-01-31T08:02:50.866Z,13.50
2019-01-31T08:05:20.985Z,14.47
2019-01-31T08:07:51.355Z,16.00
2019-01-31T08:10:26.149Z,15.03
2019-01-31T08:12:55.166Z,16.23
2019-01-31T08:15:24.213Z,17.60
2019-01-31T08:17:55.796Z,19.43
2019-01-31T08:20:24.856Z,21.20
2019-01-31T08:22:53.866Z,23.27
2019-01-31T08:25:23.697Z,27.00
2019-01-31T08:27:52.725Z,32.03
2019-01-31T08:30:24.230Z,37.13
2019-01-31T08:32:53.299Z,37.87
2019-01-31T08:35:22.317Z,38.20
2019-01-31T08:37:51.353Z,38.90
2019-01-31T08:40:20.400Z,37.63
2019-01-31T08:43:08.537Z,38.30
2019-01-31T08:45:37.486Z,34.20
2019-01-31T08:48:07.489Z,34.00
2019-01-31T08:50:36.513Z,33.27
2019-01-31T08:53:05.652Z,34.67
2019-01-31T08:55:34.702Z,32.57
2019-01-31T08:58:03.708Z,32.40
2019-01-31T09:00:32.733Z,33.70
2019-01-31T09:03:02.069Z,32.23
2019-01-31T09:05:31.150Z,31.40
2019-01-31T09:08:00.480Z,32.13
2019-01-31T09:10:31.872Z,31.80
2019-01-31T09:13:02.877Z,31.17
2019-01-31T09:15:31.784Z,30.77
2019-01-31T09:18:02.944Z,30.43
2019-01-31T09:20:47.708Z,30.40
2019-01-31T09:24:10.313Z,30.70
2019-01-31T09:27:27.174Z,28.37
2019-01-31T09:30:34.801Z,30.97
2019-01-31T09:33:33.072Z,29.67
2019-01-31T09:36:18.079Z,30.50
2019-01-31T09:39:19.088Z,31.93
2019-01-31T09:42:00.237Z,30.93
2019-01-31T09:45:18.385Z,32.80
2019-01-31T09:48:24.265Z,30.13
2019-01-31T09:51:33.041Z,28.43
2019-01-31T09:54:36.391Z,28.17
2019-01-31T09:57:43.461Z,27.87
2019-01-31T10:00:54.021Z,28.07
2019-01-31T10:03:55.289Z,28.70
2019-01-31T10:07:17.980Z,25.13
2019-01-31T10:10:15.167Z,26.07
2019-01-31T10:13:20.661Z,26.60
2019-01-31T10:16:55.043Z,25.67
2019-01-31T10:20:12.228Z,25.73
2019-01-31T10:23:30.501Z,23.13
2019-01-31T10:26:37.949Z,21.90
2019-01-31T10:29:43.813Z,20.63
2019-01-31T10:32:44.355Z,20.40
2019-01-31T10:35:57.989Z,18.73
2019-01-31T10:38:51.486Z,18.53
2019-01-31T10:41:53.696Z,17.83
2019-01-31T10:44:44.388Z,19.00
2019-01-31T10:47:56.864Z,18.27
2019-01-31T10:50:47.264Z,19.40
2019-01-31T10:53:43.334Z,17.97
2019-01-31T10:57:17.944Z,20.27
2019-01-31T11:00:07.408Z,20.83
2019-01-31T11:03:09.281Z,21.10
2019-01-31T11:06:08.324Z,21.83
2019-01-31T11:09:00.331Z,19.70
2019-01-31T11:11:49.013Z,20.60
2019-01-31T11:14:45.958Z,21.47
2019-01-31T11:17:53.792Z,20.07
2019-01-31T11:20:58.880Z,19.03
2019-01-31T11:24:06.656Z,18.23
2019-01-31T11:27:09.383Z,18.87
2019-01-31T11:30:17.605Z,17.27
2019-01-31T11:33:36.899Z,18.23
2019-01-31T11:36:24.323Z,17.57
2019-01-31T11:39:29.621Z,17.60
2019-01-31T11:42:28.165Z,18.70
2019-01-31T11:45:20.248Z,18.57
2019-01-31T11:48:03.665Z,22.97
2019-01-31T11:51:12.920Z,21.37
2019-01-31T11:54:28.840Z,20.73
2019-01-31T11:57:57.124Z,21.50
2019-01-31T12:00:27.012Z,22.47
2019-01-31T12:02:56.135Z,22.00
2019-01-31T12:05:25.168Z,23.27
2019-01-31T12:07:54.230Z,26.00
2019-01-31T12:10:24.063Z,24.20
2019-01-31T12:12:53.332Z,26.93
2019-01-31T12:15:22.278Z,29.60
2019-01-31T12:17:51.317Z,29.67
2019-01-31T12:20:21.142Z,30.40
2019-01-31T12:22:51.357Z,28.93
2019-01-31T12:25:20.776Z,29.63
2019-01-31T12:27:49.850Z,28.00
2019-01-31T12:30:21.708Z,29.27
2019-01-31T12:32:50.556Z,29.03
2019-01-31T12:35:19.568Z,27.90
2019-01-31T12:37:48.535Z,25.93
2019-01-31T12:40:18.016Z,25.87
2019-01-31T12:42:47.188Z,27.13
2019-01-31T12:45:17.720Z,26.43
2019-01-31T12:47:46.657Z,28.53
2019-01-31T12:50:18.482Z,28.27
2019-01-31T12:52:47.518Z,28.53
2019-01-31T12:55:16.548Z,28.50
2019-01-31T12:57:45.587Z,27.20
2019-01-31T13:00:26.189Z,27.03
2019-01-31T13:02:55.319Z,27.27
2019-01-31T13:05:24.602Z,27.80
2019-01-31T13:07:53.635Z,26.87
2019-01-31T13:10:23.042Z,25.73
2019-01-31T13:12:52.929Z,25.47
2019-01-31T13:15:21.974Z,24.20
2019-01-31T13:17:50.985Z,25.97
2019-01-31T13:20:21.756Z,26.50
2019-01-31T13:22:54.873Z,24.17
2019-01-31T13:25:25.561Z,24.03
2019-01-31T13:27:54.701Z,25.30
2019-01-31T13:30:23.769Z,25.83
2019-01-31T13:32:53.780Z,24.77
2019-01-31T13:35:22.795Z,23.40
2019-01-31T13:37:54.098Z,24.07
2019-01-31T13:40:24.981Z,25.33
2019-01-31T13:42:55.922Z,25.37
2019-01-31T13:45:30.231Z,26.70
2019-01-31T13:48:02.844Z,23.73
2019-01-31T13:50:32.601Z,24.57
2019-01-31T13:53:01.650Z,23.93
2019-01-31T13:55:31.361Z,24.60
2019-01-31T13:58:00.286Z,24.03
2019-01-31T14:00:29.409Z,24.33
2019-01-31T14:02:58.443Z,24.07
2019-01-31T14:05:29.763Z,23.37
2019-01-31T14:07:58.232Z,24.53
2019-01-31T14:10:28.124Z,23.60
2019-01-31T14:12:57.233Z,23.87
2019-01-31T14:15:33.630Z,21.87
2019-01-31T14:17:59.652Z,20.77
2019-01-31T14:20:28.898Z,22.20
2019-01-31T14:22:58.216Z,21.70
2019-01-31T14:25:27.220Z,21.53
2019-01-31T14:27:56.345Z,20.27
2019-01-31T14:30:30.948Z,17.53
2019-01-31T14:33:24.252Z,18.93
2019-01-31T14:35:53.329Z,17.40
2019-01-31T14:38:22.349Z,20.07
2019-01-31T14:40:51.380Z,18.37
2019-01-31T14:43:20.400Z,16.43
2019-01-31T14:45:49.738Z,18.80
2019-01-31T14:48:18.623Z,18.43
2019-01-31T14:50:47.641Z,16.53
2019-01-31T14:53:16.624Z,16.90
2019-01-31T14:55:45.721Z,15.73
2019-01-31T14:58:14.783Z,13.73
2019-01-31T15:00:43.790Z,13.83
2019-01-31T15:03:12.824Z,15.23
2019-01-31T15:05:41.817Z,15.80
2019-01-31T15:08:10.956Z,14.97
2019-01-31T15:10:39.892Z,16.67
2019-01-31T15:13:08.911Z,16.87
2019-01-31T15:15:37.944Z,19.40
2019-01-31T15:18:08.234Z,18.27
2019-01-31T15:20:39.804Z,17.53
2019-01-31T15:23:08.876Z,17.73
2019-01-31T15:25:41.521Z,17.47
2019-01-31T15:28:10.532Z,16.63
2019-01-31T15:30:39.540Z,18.57
2019-01-31T15:33:14.080Z,17.60
2019-01-31T15:35:43.569Z,17.43
2019-01-31T15:38:12.708Z,19.67
2019-01-31T15:40:47.802Z,17.20
2019-01-31T15:43:16.915Z,17.57
2019-01-31T15:45:46.092Z,18.57
2019-01-31T15:48:15.235Z,17.93
2019-01-31T15:50:44.220Z,21.90
2019-01-31T15:53:13.533Z,18.63
2019-01-31T15:55:43.272Z,19.40
2019-01-31T15:58:12.280Z,19.90
2019-01-31T16:00:50.040Z,19.93
2019-01-31T16:03:21.046Z,20.83
2019-01-31T16:05:50.664Z,20.53
2019-01-31T16:08:19.970Z,22.30
2019-01-31T16:10:49.078Z,22.50
2019-01-31T16:13:18.354Z,20.20
2019-01-31T16:15:48.225Z,19.37
2019-01-31T16:18:25.521Z,18.17
2019-01-31T16:20:54.602Z,17.67
2019-01-31T16:23:24.604Z,17.47
2019-01-31T16:25:54.061Z,16.60
2019-01-31T16:28:23.077Z,16.40
2019-01-31T16:30:52.796Z,15.63
2019-01-31T16:33:23.612Z,15.93
2019-01-31T16:35:53.855Z,15.63
2019-01-31T16:38:24.080Z,14.77
2019-01-31T16:40:53.284Z,15.80
2019-01-31T16:43:22.296Z,15.70
2019-01-31T16:45:51.420Z,16.33
2019-01-31T16:48:20.812Z,14.43
2019-01-31T16:50:51.322Z,14.53
2019-01-31T16:53:20.541Z,15.27
2019-01-31T16:55:49.547Z,14.17
2019-01-31T16:58:43.400Z,15.00
2019-01-31T17:01:16.146Z,15.57
2019-01-31T17:03:50.132Z,16.63
2019-01-31T17:06:21.586Z,16.73
2019-01-31T17:08:51.272Z,16.07
2019-01-31T17:11:21.749Z,17.87
2019-01-31T17:13:51.778Z,17.13
2019-01-31T17:16:20.802Z,18.03
2019-01-31T17:18:49.796Z,18.40
2019-01-31T17:21:18.751Z,17.70
2019-01-31T17:23:47.729Z,18.10
2019-01-31T17:26:18.945Z,18.37
2019-01-31T17:28:47.924Z,20.37
2019-01-31T17:31:16.927Z,21.67
2019-01-31T17:33:45.872Z,19.97
2019-01-31T17:36:14.889Z,19.87
2019-01-31T17:38:43.861Z,23.50
2019-01-31T17:41:12.885Z,21.70
2019-01-31T17:43:41.730Z,22.97
2019-01-31T17:46:12.752Z,24.03
2019-01-31T17:48:41.704Z,22.57
2019-01-31T17:51:12.386Z,23.07
2019-01-31T17:53:41.453Z,21.53
2019-01-31T17:56:10.824Z,22.90
2019-01-31T17:58:39.820Z,21.57
2019-01-31T18:01:09.008Z,20.67
2019-01-31T18:03:38.295Z,22.63
2019-01-31T18:06:07.409Z,23.37
2019-01-31T18:08:36.482Z,20.17
2019-01-31T18:11:05.504Z,19.73
2019-01-31T18:13:34.494Z,19.17
2019-01-31T18:16:04.718Z,20.57
2019-01-31T18:18:33.740Z,19.97
2019-01-31T18:21:02.845Z,18.93
2019-01-31T18:23:31.718Z,19.83
2019-01-31T18:26:00.717Z,20.33
2019-01-31T18:28:29.770Z,26.42
2019-01-31T18:30:58.713Z,21.03
2019-01-31T18:33:27.807Z,21.63
2019-01-31T18:35:56.961Z,21.37
2019-01-31T18:38:25.988Z,18.17
2019-01-31T18:40:54.868Z,19.77
2019-01-31T18:43:23.799Z,18.57
2019-01-31T18:45:53.758Z,18.90
2019-01-31T18:48:22.968Z,18.87
2019-01-31T18:50:51.972Z,19.47
2019-01-31T18:53:20.964Z,21.10
2019-01-31T18:55:49.873Z,19.93
2019-01-31T18:58:20.039Z,21.47
2019-01-31T19:00:50.124Z,22.10
2019-01-31T19:03:19.592Z,21.83
2019-01-31T19:05:49.711Z,21.13
2019-01-31T19:08:18.629Z,20.07
2019-01-31T19:10:47.627Z,20.73
2019-01-31T19:13:16.621Z,19.50
2019-01-31T19:15:46.483Z,20.80
2019-01-31T19:18:15.572Z,19.60
2019-01-31T19:20:44.503Z,18.80
2019-01-31T19:23:13.491Z,21.40
2019-01-31T19:25:42.489Z,20.63
2019-01-31T19:28:13.227Z,22.00
2019-01-31T19:30:42.484Z,21.03
2019-01-31T19:33:11.596Z,20.57
2019-01-31T19:35:40.613Z,19.80
2019-01-31T19:38:10.244Z,19.93
2019-01-31T19:40:41.603Z,19.53
2019-01-31T19:43:10.788Z,18.23
2019-01-31T19:45:41.859Z,18.93
2019-01-31T19:48:11.236Z,19.20
2019-01-31T19:50:43.445Z,20.10
2019-01-31T19:53:11.377Z,20.83
2019-01-31T19:55:40.378Z,22.80
2019-01-31T19:58:09.548Z,19.23
2019-01-31T20:00:38.549Z,20.67
2019-01-31T20:03:08.672Z,17.53
2019-01-31T20:05:41.561Z,21.20
2019-01-31T20:08:12.041Z,20.23
2019-01-31T20:10:41.536Z,19.27
2019-01-31T20:13:10.536Z,20.23
2019-01-31T20:15:39.589Z,18.63
2019-01-31T20:18:09.204Z,17.83
2019-01-31T20:20:38.301Z,19.47
2019-01-31T20:23:07.762Z,17.10
2019-01-31T20:25:36.963Z,18.90
2019-01-31T20:28:06.091Z,19.00
2019-01-31T20:30:35.746Z,20.13
2019-01-31T20:33:06.437Z,18.73
2019-01-31T20:35:35.643Z,18.10
2019-01-31T20:38:04.940Z,18.27
2019-01-31T20:40:36.304Z,20.27
2019-01-31T20:43:06.899Z,19.80
2019-01-31T20:45:36.272Z,19.33
2019-01-31T20:48:07.290Z,20.30
2019-01-31T20:50:37.185Z,19.83
2019-01-31T20:53:06.793Z,19.47
2019-01-31T20:55:35.798Z,21.33
2019-01-31T20:58:05.577Z,21.70
2019-01-31T21:00:37.021Z,20.93
2019-01-31T21:03:06.962Z,24.97
2019-01-31T21:05:36.038Z,24.00
2019-01-31T21:08:06.051Z,26.13
2019-01-31T21:10:35.240Z,26.73
2019-01-31T21:13:06.641Z,22.90
2019-01-31T21:15:35.857Z,26.53
2019-01-31T21:18:05.920Z,26.93
2019-01-31T21:20:35.035Z,27.90
2019-01-31T21:23:04.372Z,27.10
2019-01-31T21:25:34.463Z,25.37
2019-01-31T21:28:04.784Z,25.40
2019-01-31T21:30:36.845Z,25.63
2019-01-31T21:33:07.253Z,27.40
2019-01-31T21:35:36.345Z,27.60
2019-01-31T21:38:05.624Z,24.87
2019-01-31T21:40:38.043Z,28.83
2019-01-31T21:43:07.133Z,30.30
2019-01-31T21:45:36.376Z,30.93
2019-01-31T21:48:08.938Z,29.50
2019-01-31T21:50:37.994Z,30.97
2019-01-31T21:53:07.194Z,32.47
2019-01-31T21:55:36.256Z,30.90
2019-01-31T21:58:06.018Z,31.13
2019-01-31T22:00:35.477Z,30.70
2019-01-31T22:03:05.334Z,30.03
2019-01-31T22:05:34.420Z,31.10
2019-01-31T22:08:03.435Z,31.03
2019-01-31T22:10:32.448Z,30.93
2019-01-31T22:13:02.933Z,29.30
2019-01-31T22:15:32.788Z,29.27
2019-01-31T22:18:01.822Z,29.63
2019-01-31T22:20:30.887Z,32.07
2019-01-31T22:22:59.877Z,30.70
2019-01-31T22:25:28.912Z,28.47
2019-01-31T22:27:58.227Z,29.13
2019-01-31T22:30:38.032Z,29.43
2019-01-31T22:33:08.539Z,28.87
2019-01-31T22:35:37.611Z,27.93
2019-01-31T22:38:06.995Z,27.80
2019-01-31T22:40:36.213Z,28.07
2019-01-31T22:43:05.882Z,28.20
2019-01-31T22:45:34.961Z,27.87
2019-01-31T22:48:05.364Z,27.73
2019-01-31T22:50:44.959Z,25.90
2019-01-31T22:53:13.840Z,26.60
2019-01-31T22:55:42.860Z,26.97
2019-01-31T22:58:11.785Z,28.73
2019-01-31T23:01:11.177Z,27.00
2019-01-31T23:03:40.725Z,25.60
2019-01-31T23:06:12.643Z,27.63
2019-01-31T23:08:41.677Z,27.97
2019-01-31T23:11:10.689Z,27.77
2019-01-31T23:13:39.636Z,29.10
2019-01-31T23:16:10.728Z,25.80
2019-01-31T23:18:39.811Z,24.97
2019-01-31T23:21:08.875Z,26.77
2019-01-31T23:23:37.874Z,26.40
2019-01-31T23:26:07.145Z,26.10
2019-01-31T23:28:36.133Z,26.10
2019-01-31T23:31:05.556Z,26.53
2019-01-31T23:33:34.424Z,26.17
2019-01-31T23:36:03.736Z,25.73
2019-01-31T23:38:32.739Z,26.87
2019-01-31T23:41:01.836Z,24.37
2019-01-31T23:43:32.836Z,24.47
2019-01-31T23:46:02.428Z,25.73
2019-01-31T23:48:31.276Z,25.33
2019-01-31T23:51:00.564Z,24.37
2019-01-31T23:53:29.613Z,25.53
2019-01-31T23:55:58.536Z,22.67
2019-01-31T23:58:27.511Z,25.03
